Time;durP1;ratioP1;P1;durP2;ratioP2;P2;SDS_P1;SDS_P2;PMS_P1;PMS_P2;Temp;Humidity;BMP_temperature;BMP_pressure;BME280_temperature;BME280_humidity;BME280_pressure;Samples;Min_cycle;Max_cycle;Signal;HPM_P1;HPM_P2
2022/08/05 00:01:15;;;;;;;;;4.00;4.00;;;;;-145.45;100.00;57426.63;5081297;28;45348;-73
2022/08/05 00:03:41;;;;;;;;;4.00;4.00;;;;;-145.45;100.00;57426.63;5063306;28;45219;-74
2022/08/05 00:06:06;;;;;;;;;3.67;3.33;;;;;-145.45;100.00;57426.63;5081525;27;45213;-74
2022/08/05 00:08:33;;;;;;;;;4.67;4.67;;;;;-145.45;100.00;57426.63;5081419;28;46326;-74
2022/08/05 00:11:00;;;;;;;;;2.00;2.00;;;;;-145.45;100.00;57426.63;5081443;28;45380;-75
2022/08/05 00:13:26;;;;;;;;;4.67;4.00;;;;;-145.45;100.00;57426.63;5063123;28;45361;-75
2022/08/05 00:15:51;;;;;;;;;3.67;3.67;;;;;-145.45;100.00;57426.63;5081066;28;45513;-75
2022/08/05 00:18:16;;;;;;;;;3.00;3.00;;;;;-145.45;100.00;57426.63;5081227;28;46440;-75
2022/08/05 00:20:42;;;;;;;;;4.67;4.67;;;;;-145.45;100.00;57426.63;5068711;28;45216;-75
2022/08/05 00:23:07;;;;;;;;;2.00;2.00;;;;;-145.45;100.00;57426.63;5081346;27;45232;-75
2022/08/05 00:25:32;;;;;;;;;4.67;4.00;;;;;-145.45;100.00;57426.63;5081405;28;45206;-75
2022/08/05 00:27:58;;;;;;;;;4.67;4.67;;;;;-145.45;100.00;57426.63;5081163;27;45213;-75
2022/08/05 00:30:24;;;;;;;;;4.33;3.33;;;;;-145.45;100.00;57426.63;5081092;28;45330;-75
2022/08/05 00:32:49;;;;;;;;;5.33;4.00;;;;;-145.45;100.00;57426.63;5081041;27;45396;-75
2022/08/05 00:35:15;;;;;;;;;5.00;5.00;;;;;-145.45;100.00;57426.63;5085769;27;45406;-75
2022/08/05 00:37:41;;;;;;;;;4.00;4.00;;;;;-145.45;100.00;57426.63;5080740;28;45498;-75
2022/08/05 00:40:07;;;;;;;;;5.67;4.33;;;;;-145.45;100.00;57426.63;5079649;27;45162;-75
2022/08/05 00:42:38;;;;;;;;;4.33;3.67;;;;;-145.45;100.00;57426.63;5081032;27;45467;-75
2022/08/05 00:45:06;;;;;;;;;5.00;5.00;;;;;-145.45;100.00;57426.63;5080755;28;45175;-75
2022/08/05 00:47:31;;;;;;;;;3.00;3.00;;;;;-145.45;100.00;57426.63;5080633;27;45329;-75
2022/08/05 00:49:56;;;;;;;;;2.00;2.00;;;;;-145.45;100.00;57426.63;5080493;28;45292;-75
2022/08/05 00:52:22;;;;;;;;;5.00;5.00;;;;;-145.45;100.00;57426.63;5080758;28;45494;-75
2022/08/05 00:54:47;;;;;;;;;3.67;3.00;;;;;-145.45;100.00;57426.63;5080840;27;45295;-74
2022/08/05 00:57:13;;;;;;;;;4.33;4.33;;;;;-145.45;100.00;57426.63;5080413;27;45597;-74
2022/08/05 00:59:38;;;;;;;;;4.00;3.67;;;;;-145.45;100.00;57426.63;5080733;28;45388;-74
2022/08/05 01:02:04;;;;;;;;;9.33;5.00;;;;;-145.45;100.00;57426.63;5080487;27;45591;-74
2022/08/05 01:04:29;;;;;;;;;3.00;3.00;;;;;-145.45;100.00;57426.63;5080702;28;45259;-73
2022/08/05 01:06:54;;;;;;;;;4.67;4.67;;;;;-145.45;100.00;57426.63;5080379;27;45467;-75
2022/08/05 01:09:20;;;;;;;;;5.00;3.33;;;;;-145.45;100.00;57426.63;5080711;27;45348;-74
2022/08/05 01:11:49;;;;;;;;;4.00;4.00;;;;;-145.45;100.00;57426.63;5080482;27;45273;-73
2022/08/05 01:14:42;;;;;;;;;6.33;4.67;;;;;-145.45;100.00;57426.63;5080511;28;45252;-74
2022/08/05 01:17:12;;;;;;;;;6.00;4.67;;;;;-145.45;100.00;57426.63;5087239;27;45295;-74
2022/08/05 01:20:19;;;;;;;;;4.33;4.00;;;;;-145.45;100.00;57426.63;5100636;27;45362;-74
2022/08/05 01:23:12;;;;;;;;;5.00;4.33;;;;;-145.45;100.00;57426.63;5082577;27;45366;-75
2022/08/05 01:26:08;;;;;;;;;4.00;4.00;;;;;-145.45;100.00;57426.63;5100642;27;45252;-75
2022/08/05 01:28:45;;;;;;;;;7.00;4.67;;;;;-145.45;100.00;57426.63;5088084;27;45629;-75
2022/08/05 01:31:21;;;;;;;;;6.33;5.33;;;;;-145.45;100.00;57426.63;5081874;27;45348;-75
2022/08/05 01:33:50;;;;;;;;;4.00;3.33;;;;;-145.45;100.00;57426.63;5099739;27;45438;-75
2022/08/05 01:36:18;;;;;;;;;4.00;4.00;;;;;-145.45;100.00;57426.63;5082249;27;45231;-75
2022/08/05 01:38:46;;;;;;;;;4.00;3.67;;;;;-145.45;100.00;57426.63;5079790;28;45293;-75
2022/08/05 01:41:15;;;;;;;;;4.00;4.00;;;;;-145.45;100.00;57426.63;5079879;27;45435;-75
2022/08/05 01:43:42;;;;;;;;;5.33;3.67;;;;;-145.45;100.00;57426.63;5080100;27;45249;-75
2022/08/05 01:46:08;;;;;;;;;5.67;5.67;;;;;-145.45;100.00;57426.63;5061464;28;46074;-75
2022/08/05 01:48:36;;;;;;;;;5.67;4.33;;;;;-145.45;100.00;57426.63;5079813;28;45352;-75
2022/08/05 01:51:03;;;;;;;;;4.33;3.00;;;;;-145.45;100.00;57426.63;5079747;28;45270;-75
2022/08/05 01:53:33;;;;;;;;;4.00;4.00;;;;;-145.45;100.00;57426.63;5061735;28;45222;-75
2022/08/05 01:56:01;;;;;;;;;6.67;5.67;;;;;-145.45;100.00;57426.63;5086287;27;45354;-75
2022/08/05 01:58:29;;;;;;;;;3.67;3.33;;;;;-145.45;100.00;57426.63;5081735;27;48437;-76
2022/08/05 02:00:58;;;;;;;;;8.00;5.00;;;;;-145.45;100.00;57426.63;5100031;27;45430;-75
2022/08/05 02:03:36;;;;;;;;;6.33;3.67;;;;;-145.45;100.00;57426.63;5099383;27;45334;-75
2022/08/05 02:06:04;;;;;;;;;3.67;3.00;;;;;-145.45;100.00;57426.63;5100183;27;45505;-75
2022/08/05 02:08:31;;;;;;;;;4.00;2.67;;;;;-145.45;100.00;57426.63;5100072;27;45232;-75
2022/08/05 02:11:05;;;;;;;;;6.00;4.33;;;;;-145.45;100.00;57426.63;5099882;27;45240;-75
2022/08/05 02:13:43;;;;;;;;;4.00;4.00;;;;;-145.45;100.00;57426.63;5100262;27;44591;-75
2022/08/05 02:16:17;;;;;;;;;4.33;4.33;;;;;-145.45;100.00;57426.63;5099723;27;45538;-76
2022/08/05 02:19:04;;;;;;;;;4.00;4.00;;;;;-145.45;100.00;57426.63;5099940;27;46169;-75
2022/08/05 02:21:34;;;;;;;;;5.00;4.00;;;;;-145.45;100.00;57426.63;5099816;27;45373;-75
2022/08/05 02:24:05;;;;;;;;;4.00;4.00;;;;;-145.45;100.00;57426.63;5100045;27;45418;-75
2022/08/05 02:26:57;;;;;;;;;9.00;4.33;;;;;-145.45;100.00;57426.63;5077392;28;45737;-76
2022/08/05 02:29:24;;;;;;;;;4.00;4.00;;;;;-145.45;100.00;57426.63;5079371;28;45285;-75
2022/08/05 02:31:53;;;;;;;;;3.67;3.67;;;;;-145.45;100.00;57426.63;5079368;28;45339;-76
2022/08/05 02:34:20;;;;;;;;;4.67;4.00;;;;;-145.45;100.00;57426.63;5084168;27;45233;-76
2022/08/05 02:36:53;;;;;;;;;4.33;4.33;;;;;-145.45;100.00;57426.63;5079072;27;45459;-75
2022/08/05 02:39:20;;;;;;;;;5.33;5.00;;;;;-145.45;100.00;57426.63;5079127;27;46054;-75
2022/08/05 02:41:47;;;;;;;;;4.00;4.00;;;;;-145.45;100.00;57426.63;5079194;28;45300;-76
2022/08/05 02:44:13;;;;;;;;;7.00;5.33;;;;;-145.45;100.00;57426.63;5079356;27;45367;-75
2022/08/05 02:46:45;;;;;;;;;5.00;5.00;;;;;-145.45;100.00;57426.63;5078890;28;45519;-76
2022/08/05 02:49:14;;;;;;;;;5.00;4.00;;;;;-145.45;100.00;57426.63;5079115;27;46372;-75
2022/08/05 02:51:41;;;;;;;;;5.00;4.00;;;;;-145.45;100.00;57426.63;5079077;28;45271;-75
2022/08/05 02:54:08;;;;;;;;;2.67;2.67;;;;;-145.45;100.00;57426.63;5079113;28;45482;-76
2022/08/05 02:56:34;;;;;;;;;4.00;3.67;;;;;-145.45;100.00;57426.63;5078881;28;45391;-75
2022/08/05 02:59:00;;;;;;;;;5.00;4.00;;;;;-145.45;100.00;57426.63;5079159;28;45264;-76
2022/08/05 03:01:27;;;;;;;;;5.00;5.00;;;;;-145.45;100.00;57426.63;5078815;28;45245;-75
2022/08/05 03:04:01;;;;;;;;;6.33;5.00;;;;;-145.45;100.00;57426.63;5079041;28;45353;-76
2022/08/05 03:06:27;;;;;;;;;5.00;4.00;;;;;-145.45;100.00;57426.63;5078928;28;45358;-75
2022/08/05 03:08:54;;;;;;;;;4.00;4.00;;;;;-145.45;100.00;57426.63;5078828;28;45352;-76
2022/08/05 03:11:21;;;;;;;;;3.33;3.33;;;;;-145.45;100.00;57426.63;5078856;28;45406;-75
2022/08/05 03:13:48;;;;;;;;;5.00;3.33;;;;;-145.45;100.00;57426.63;5080028;28;45324;-76
2022/08/05 03:16:13;;;;;;;;;4.00;4.00;;;;;-145.45;100.00;57426.63;5082142;27;45240;-76
2022/08/05 03:18:39;;;;;;;;;3.67;3.67;;;;;-145.45;100.00;57426.63;5082116;27;45222;-76
2022/08/05 03:21:04;;;;;;;;;3.00;3.00;;;;;-145.45;100.00;57426.63;5080855;28;45316;-76
2022/08/05 03:23:31;;;;;;;;;5.67;5.00;;;;;-145.45;100.00;57426.63;5082240;28;45247;-76
2022/08/05 03:25:57;;;;;;;;;4.00;4.00;;;;;-145.45;100.00;57426.63;5082049;27;45594;-76
2022/08/05 03:28:23;;;;;;;;;4.00;4.00;;;;;-145.45;100.00;57426.63;5081803;28;45381;-76
2022/08/05 03:30:49;;;;;;;;;4.67;3.00;;;;;-145.45;100.00;57426.63;5081909;28;45399;-76
2022/08/05 03:33:15;;;;;;;;;3.33;3.33;;;;;-145.45;100.00;57426.63;5063126;28;44741;-76
2022/08/05 03:35:40;;;;;;;;;4.00;4.00;;;;;-145.45;100.00;57426.63;5086673;27;45561;-76
2022/08/05 03:38:06;;;;;;;;;4.00;4.00;;;;;-145.45;100.00;57426.63;5081755;27;45484;-76
2022/08/05 03:40:31;;;;;;;;;7.00;5.00;;;;;-145.45;100.00;57426.63;5081961;27;45372;-76
2022/08/05 03:42:57;;;;;;;;;6.67;4.33;;;;;-145.45;100.00;57426.63;5082022;27;45399;-76
2022/08/05 03:45:22;;;;;;;;;7.33;4.33;;;;;-145.45;100.00;57426.63;5081669;27;45435;-76
2022/08/05 03:47:47;;;;;;;;;5.67;5.00;;;;;-145.45;100.00;57426.63;5081675;27;45394;-76
2022/08/05 03:50:13;;;;;;;;;5.67;5.67;;;;;-145.45;100.00;57426.63;5081886;27;45268;-76
2022/08/05 03:53:08;;;;;;;;;6.67;6.33;;;;;-145.45;100.00;57426.63;5080213;27;46527;-76
2022/08/05 03:55:39;;;;;;;;;6.33;6.00;;;;;-145.45;100.00;57426.63;5054501;28;45391;-76
2022/08/05 03:58:09;;;;;;;;;5.00;5.00;;;;;-145.45;100.00;57426.63;5081686;28;45382;-76
2022/08/05 04:00:37;;;;;;;;;5.67;5.00;;;;;-145.45;100.00;57426.63;5081388;27;45245;-76
2022/08/05 04:03:05;;;;;;;;;5.67;5.33;;;;;-145.45;100.00;57426.63;5081831;28;45396;-76
2022/08/05 04:05:35;;;;;;;;;5.00;5.00;;;;;-145.45;100.00;57426.63;5081361;27;45268;-76
2022/08/05 04:08:08;;;;;;;;;3.67;3.33;;;;;-145.45;100.00;57426.63;5081466;28;46032;-77
2022/08/05 04:10:34;;;;;;;;;8.00;5.00;;;;;-145.45;100.00;57426.63;5069912;27;45283;-76
2022/08/05 04:12:59;;;;;;;;;6.00;5.00;;;;;-145.45;100.00;57426.63;5101814;27;45204;-77
2022/08/05 04:15:26;;;;;;;;;3.33;3.33;;;;;-145.45;100.00;57426.63;5101651;27;45518;-76
2022/08/05 04:17:53;;;;;;;;;8.33;4.00;;;;;-145.45;100.00;57426.63;5101879;27;46013;-77
2022/08/05 04:20:22;;;;;;;;;3.00;3.00;;;;;-145.45;100.00;57426.63;5101763;27;45475;-76
2022/08/05 04:22:48;;;;;;;;;3.33;3.00;;;;;-145.45;100.00;57426.63;5101708;27;45228;-76
2022/08/05 04:25:14;;;;;;;;;5.00;4.00;;;;;-145.45;100.00;57426.63;5082442;27;47155;-76
2022/08/05 04:27:40;;;;;;;;;4.00;3.00;;;;;-145.45;100.00;57426.63;5087523;27;45280;-77
2022/08/05 04:30:07;;;;;;;;;5.67;5.00;;;;;-145.45;100.00;57426.63;5079772;27;45256;-76
2022/08/05 04:32:33;;;;;;;;;4.00;4.00;;;;;-145.45;100.00;57426.63;5081161;28;45348;-77
2022/08/05 04:34:58;;;;;;;;;4.67;4.67;;;;;-145.45;100.00;57426.63;5085832;27;45533;-76
2022/08/05 04:37:23;;;;;;;;;4.67;3.00;;;;;-145.45;100.00;57426.63;5079396;27;47687;-76
2022/08/05 04:39:49;;;;;;;;;5.00;4.00;;;;;-145.45;100.00;57426.63;5081002;28;45312;-77
2022/08/05 04:42:15;;;;;;;;;5.00;5.00;;;;;-145.45;100.00;57426.63;5062363;28;45364;-76
2022/08/05 04:44:40;;;;;;;;;5.33;5.00;;;;;-145.45;100.00;57426.63;5080797;27;45309;-77
2022/08/05 04:47:06;;;;;;;;;5.33;5.33;;;;;-145.45;100.00;57426.63;5081456;28;45241;-77
2022/08/05 04:49:32;;;;;;;;;5.00;4.67;;;;;-145.45;100.00;57426.63;5080705;28;45353;-77
2022/08/05 04:51:57;;;;;;;;;9.00;6.67;;;;;-145.45;100.00;57426.63;5081176;28;45340;-77
2022/08/05 04:54:25;;;;;;;;;8.00;5.00;;;;;-145.45;100.00;57426.63;5078159;28;45686;-76
2022/08/05 04:56:54;;;;;;;;;5.33;5.00;;;;;-145.45;100.00;57426.63;5081050;28;45630;-77
2022/08/05 04:59:21;;;;;;;;;7.00;4.00;;;;;-145.45;100.00;57426.63;5080674;27;45280;-76
2022/08/05 05:01:46;;;;;;;;;8.67;5.67;;;;;-145.45;100.00;57426.63;5061948;28;45392;-77
2022/08/05 05:04:12;;;;;;;;;5.00;5.00;;;;;-145.45;100.00;57426.63;5079186;28;46081;-77
2022/08/05 05:06:37;;;;;;;;;5.33;5.33;;;;;-145.45;100.00;57426.63;5062185;28;47602;-77
2022/08/05 05:09:03;;;;;;;;;7.33;7.00;;;;;-145.45;100.00;57426.63;5080540;27;45240;-77
2022/08/05 05:11:28;;;;;;;;;9.33;6.00;;;;;-145.45;100.00;57426.63;5072146;28;45190;-77
2022/08/05 05:13:53;;;;;;;;;9.00;5.00;;;;;-145.45;100.00;57426.63;5080359;28;45225;-77
2022/08/05 05:16:19;;;;;;;;;6.00;6.00;;;;;-145.45;100.00;57426.63;5080137;28;46420;-77
2022/08/05 05:18:44;;;;;;;;;6.33;5.33;;;;;-145.45;100.00;57426.63;5080375;27;45186;-77
2022/08/05 05:21:09;;;;;;;;;8.00;5.33;;;;;-145.45;100.00;57426.63;5080446;28;45321;-77
2022/08/05 05:23:35;;;;;;;;;6.67;6.00;;;;;-145.45;100.00;57426.63;5080256;27;45488;-77
2022/08/05 05:26:00;;;;;;;;;5.00;5.00;;;;;-145.45;100.00;57426.63;5061814;28;51977;-77
2022/08/05 05:28:25;;;;;;;;;4.00;4.00;;;;;-145.45;100.00;57426.63;5080215;28;45233;-77
2022/08/05 05:30:51;;;;;;;;;7.00;5.67;;;;;-145.45;100.00;57426.63;5080158;28;45250;-77
2022/08/05 05:33:16;;;;;;;;;8.67;8.67;;;;;-145.45;100.00;57426.63;5080097;28;45490;-77
2022/08/05 05:35:46;;;;;;;;;7.33;7.33;;;;;-145.45;100.00;57426.63;5084347;27;45242;-76
2022/08/05 05:38:12;;;;;;;;;5.67;5.67;;;;;-145.45;100.00;57426.63;5086148;27;45362;-77
2022/08/05 05:40:37;;;;;;;;;4.33;4.33;;;;;-145.45;100.00;57426.63;5100577;27;45337;-77
2022/08/05 05:43:03;;;;;;;;;5.67;5.33;;;;;-145.45;100.00;57426.63;5100731;27;45210;-77
2022/08/05 05:45:28;;;;;;;;;11.00;5.67;;;;;-145.45;100.00;57426.63;5100422;27;45285;-77
2022/08/05 05:47:53;;;;;;;;;5.67;5.67;;;;;-145.45;100.00;57426.63;5100467;27;45227;-77
2022/08/05 05:50:19;;;;;;;;;6.00;6.00;;;;;-145.45;100.00;57426.63;5100791;27;45223;-77
2022/08/05 05:52:46;;;;;;;;;6.00;5.00;;;;;-145.45;100.00;57426.63;5100313;27;45246;-77
2022/08/05 05:55:14;;;;;;;;;5.67;4.67;;;;;-145.45;100.00;57426.63;5100374;27;46117;-77
2022/08/05 05:57:40;;;;;;;;;7.33;5.67;;;;;-145.45;100.00;57426.63;5079701;27;45324;-78
2022/08/05 06:00:09;;;;;;;;;8.00;8.00;;;;;-145.45;100.00;57426.63;5061423;28;45230;-78
2022/08/05 06:02:35;;;;;;;;;7.67;7.00;;;;;-145.45;100.00;57426.63;5060885;28;45799;-77
2022/08/05 06:05:00;;;;;;;;;6.00;6.00;;;;;-145.45;100.00;57426.63;5079716;28;45152;-78
2022/08/05 06:07:26;;;;;;;;;6.00;6.00;;;;;-145.45;100.00;57426.63;5079906;28;45270;-78
2022/08/05 06:09:51;;;;;;;;;6.00;6.00;;;;;-145.45;100.00;57426.63;5072004;28;45272;-78
2022/08/05 06:12:16;;;;;;;;;10.00;7.33;;;;;-145.45;100.00;57426.63;5079493;28;46424;-78
2022/08/05 06:14:43;;;;;;;;;7.33;7.33;;;;;-145.45;100.00;57426.63;5071176;28;47638;-78
2022/08/05 06:17:12;;;;;;;;;6.67;6.33;;;;;-145.45;100.00;57426.63;5079784;28;45349;-78
2022/08/05 06:19:38;;;;;;;;;7.00;5.67;;;;;-145.45;100.00;57426.63;5079697;28;45245;-77
2022/08/05 06:22:06;;;;;;;;;8.33;6.00;;;;;-145.45;100.00;57426.63;5079379;28;45191;-78
2022/08/05 06:24:32;;;;;;;;;8.00;6.33;;;;;-145.45;100.00;57426.63;5079451;28;46407;-78
2022/08/05 06:26:58;;;;;;;;;6.00;5.33;;;;;-145.45;100.00;57426.63;5065008;28;45396;-78
2022/08/05 06:29:24;;;;;;;;;6.67;5.00;;;;;-145.45;100.00;57426.63;5079479;28;45770;-79
2022/08/05 06:31:49;;;;;;;;;8.33;7.00;;;;;-145.45;100.00;57426.63;5079268;27;45560;-78
2022/08/05 06:34:14;;;;;;;;;8.00;5.00;;;;;-145.45;100.00;57426.63;5084229;27;45264;-78
2022/08/05 06:36:40;;;;;;;;;5.67;5.33;;;;;-145.45;100.00;57426.63;5080919;28;45268;-78
2022/08/05 06:39:05;;;;;;;;;5.67;5.00;;;;;-145.45;100.00;57426.63;5080086;27;45276;-78
2022/08/05 06:41:30;;;;;;;;;8.33;7.00;;;;;-145.45;100.00;57426.63;5079306;28;45520;-78
2022/08/05 06:43:56;;;;;;;;;9.00;7.67;;;;;-145.45;100.00;57426.63;5079190;27;46046;-78
2022/08/05 06:46:21;;;;;;;;;7.00;7.00;;;;;-145.45;100.00;57426.63;5078984;28;45303;-77
2022/08/05 06:48:46;;;;;;;;;5.67;5.67;;;;;-145.45;100.00;57426.63;5080542;28;45261;-77
2022/08/05 06:51:12;;;;;;;;;5.33;5.33;;;;;-145.45;100.00;57426.63;5082789;27;45304;-77
2022/08/05 06:53:37;;;;;;;;;7.33;6.00;;;;;-145.45;100.00;57426.63;5082659;27;45737;-77
2022/08/05 06:56:03;;;;;;;;;11.00;9.33;;;;;-145.45;100.00;57426.63;5081160;28;45713;-77
2022/08/05 06:58:29;;;;;;;;;7.67;6.67;;;;;-145.45;100.00;57426.63;5083026;27;45312;-77
2022/08/05 07:00:58;;;;;;;;;8.00;5.00;;;;;-145.45;100.00;57426.63;5082328;27;45228;-77
2022/08/05 07:03:23;;;;;;;;;8.00;6.67;;;;;-145.45;100.00;57426.63;5082207;28;46232;-76
2022/08/05 07:05:48;;;;;;;;;6.33;6.33;;;;;-145.45;100.00;57426.63;5082419;27;48171;-76
2022/08/05 07:08:14;;;;;;;;;6.00;6.00;;;;;-145.45;100.00;57426.63;5082620;27;45436;-76
2022/08/05 07:10:39;;;;;;;;;8.00;5.33;;;;;-145.45;100.00;57426.63;5081019;28;45534;-76
2022/08/05 07:18:32;;;;;;;;;10.33;6.67;;;;;-145.45;100.00;57426.63;5082331;27;45351;-76
2022/08/05 07:20:58;;;;;;;;;8.33;6.33;;;;;-145.45;100.00;57426.63;5072403;28;46403;-75
2022/08/05 07:23:23;;;;;;;;;5.67;5.67;;;;;-145.45;100.00;57426.63;5082052;27;46080;-75
2022/08/05 07:25:48;;;;;;;;;6.00;6.00;;;;;-145.45;100.00;57426.63;5072103;28;45867;-76
2022/08/05 07:28:14;;;;;;;;;12.00;6.67;;;;;-145.45;100.00;57426.63;5082136;27;45470;-75
2022/08/05 07:30:39;;;;;;;;;5.00;5.00;;;;;-145.45;100.00;57426.63;5071728;28;45525;-75
2022/08/05 07:33:07;;;;;;;;;5.33;5.00;;;;;-145.45;100.00;57426.63;5081799;28;46566;-75
2022/08/05 07:35:32;;;;;;;;;9.67;8.33;;;;;-145.45;100.00;57426.63;5086599;27;45343;-75
2022/08/05 07:37:58;;;;;;;;;11.33;8.67;;;;;-145.45;100.00;57426.63;5081895;27;45372;-76
2022/08/05 07:40:23;;;;;;;;;7.67;6.67;;;;;-145.45;100.00;57426.63;5082015;27;45197;-75
2022/08/05 07:42:48;;;;;;;;;9.67;7.33;;;;;-145.45;100.00;57426.63;5081621;28;46031;-75
2022/08/05 07:45:14;;;;;;;;;12.67;8.00;;;;;-145.45;100.00;57426.63;5081773;27;45249;-75
2022/08/05 07:47:40;;;;;;;;;10.67;8.67;;;;;-145.45;100.00;57426.63;5063238;28;45257;-75
2022/08/05 07:50:06;;;;;;;;;9.00;7.00;;;;;-145.45;100.00;57426.63;5081779;28;45352;-75
2022/08/05 07:52:37;;;;;;;;;11.67;10.00;;;;;-145.45;100.00;57426.63;5081550;27;45263;-75
2022/08/05 07:55:03;;;;;;;;;7.67;7.67;;;;;-145.45;100.00;57426.63;5081717;28;45340;-75
2022/08/05 07:57:28;;;;;;;;;5.00;5.00;;;;;-145.45;100.00;57426.63;5081533;27;45443;-75
2022/08/05 07:59:53;;;;;;;;;9.33;8.33;;;;;-145.45;100.00;57426.63;5080429;28;50719;-75
2022/08/05 08:02:26;;;;;;;;;12.00;8.00;;;;;-145.45;100.00;57426.63;5063080;28;45268;-75
2022/08/05 08:04:51;;;;;;;;;7.33;7.33;;;;;-145.45;100.00;57426.63;5081612;27;45252;-73
2022/08/05 08:07:17;;;;;;;;;9.00;8.00;;;;;-145.45;100.00;57426.63;5081642;27;45309;-75
2022/08/05 08:09:43;;;;;;;;;9.67;7.67;;;;;-145.45;100.00;57426.63;5081567;28;45525;-74
2022/08/05 08:12:09;;;;;;;;;8.00;7.00;;;;;-145.45;100.00;57426.63;5088287;27;46228;-75
2022/08/05 08:14:34;;;;;;;;;5.67;5.67;;;;;-145.45;100.00;57426.63;5101678;27;45221;-75
2022/08/05 08:17:00;;;;;;;;;8.67;8.33;;;;;-145.45;100.00;57426.63;5102100;27;45197;-75
2022/08/05 08:19:25;;;;;;;;;8.00;4.33;;;;;-145.45;100.00;57426.63;5101884;27;45232;-74
2022/08/05 08:21:50;;;;;;;;;7.00;6.00;;;;;-145.45;100.00;57426.63;5101430;27;55104;-75
2022/08/05 08:24:16;;;;;;;;;5.33;4.33;;;;;-145.45;100.00;57426.63;5101841;27;45177;-74
2022/08/05 08:26:41;;;;;;;;;8.00;6.67;;;;;-145.45;100.00;57426.63;5083354;27;45312;-74
2022/08/05 08:29:06;;;;;;;;;4.75;4.75;;;;;-145.45;100.00;57426.63;5101570;27;45466;-74
2022/08/05 08:31:32;;;;;;;;;5.00;5.00;;;;;-145.45;100.00;57426.63;5101233;27;46119;-74
2022/08/05 08:33:57;;;;;;;;;5.00;3.00;;;;;-145.45;100.00;57426.63;5101473;27;45172;-75
2022/08/05 08:36:22;;;;;;;;;7.25;6.25;;;;;-145.45;100.00;57426.63;5079820;28;45256;-75
2022/08/05 08:38:48;;;;;;;;;3.75;3.75;;;;;-145.45;100.00;57426.63;5080980;28;45576;-74
2022/08/05 08:41:14;;;;;;;;;6.75;6.25;;;;;-145.45;100.00;57426.63;5080919;27;46576;-74
2022/08/05 08:43:42;;;;;;;;;4.75;4.25;;;;;-145.45;100.00;57426.63;5081080;27;45253;-74
2022/08/05 08:46:07;;;;;;;;;7.50;4.50;;;;;-145.45;100.00;57426.63;5080802;27;45274;-74
2022/08/05 08:48:34;;;;;;;;;7.25;4.00;;;;;-145.45;100.00;57426.63;5062791;28;45929;-75
2022/08/05 08:51:02;;;;;;;;;5.75;5.00;;;;;-145.45;100.00;57426.63;5080656;28;46719;-74
2022/08/05 08:53:34;;;;;;;;;6.50;4.00;;;;;-145.45;100.00;57426.63;5062569;28;45820;-74
2022/08/05 08:56:01;;;;;;;;;6.50;6.50;;;;;-145.45;100.00;57426.63;5080706;27;45236;-74
2022/08/05 08:58:27;;;;;;;;;5.00;5.00;;;;;-145.45;100.00;57426.63;5080639;27;45486;-75
2022/08/05 09:00:53;;;;;;;;;4.25;2.50;;;;;-145.45;100.00;57426.63;5080449;28;45246;-74
2022/08/05 09:03:20;;;;;;;;;5.00;5.00;;;;;-145.45;100.00;57426.63;5080667;28;45419;-74
2022/08/05 09:05:46;;;;;;;;;4.25;2.50;;;;;-145.45;100.00;57426.63;5080750;28;45315;-74
2022/08/05 09:08:12;;;;;;;;;7.50;6.00;;;;;-145.45;100.00;57426.63;5080553;27;45351;-74
2022/08/05 09:10:40;;;;;;;;;6.00;5.25;;;;;-145.45;100.00;57426.63;5080365;28;46103;-74
2022/08/05 09:13:06;;;;;;;;;7.25;5.75;;;;;-145.45;100.00;57426.63;5080092;28;45329;-74
2022/08/05 09:15:32;;;;;;;;;5.25;4.00;;;;;-145.45;100.00;57426.63;5080593;28;45224;-74
2022/08/05 09:17:58;;;;;;;;;7.25;5.75;;;;;-145.45;100.00;57426.63;5079932;27;45569;-74
2022/08/05 09:20:23;;;;;;;;;8.00;6.25;;;;;-145.45;100.00;57426.63;5061784;28;47465;-74
2022/08/05 09:23:11;;;;;;;;;6.50;5.50;;;;;-145.45;100.00;57426.63;5062173;27;45396;-74
2022/08/05 09:25:39;;;;;;;;;6.00;6.00;;;;;-145.45;100.00;57426.63;5080332;28;45286;-74
2022/08/05 09:28:26;;;;;;;;;6.75;6.75;;;;;-145.45;100.00;57426.63;5079282;27;45715;-73
2022/08/05 09:31:03;;;;;;;;;7.50;6.25;;;;;-145.45;100.00;57426.63;5100588;27;46346;-73
2022/08/05 09:33:29;;;;;;;;;7.00;4.50;;;;;-145.45;100.00;57426.63;5100566;27;45428;-74
2022/08/05 09:35:59;;;;;;;;;5.25;4.75;;;;;-145.45;100.00;57426.63;5085853;27;45257;-73
2022/08/05 09:38:25;;;;;;;;;5.50;5.25;;;;;-145.45;100.00;57426.63;5079507;28;45494;-73
2022/08/05 09:40:52;;;;;;;;;6.75;6.00;;;;;-145.45;100.00;57426.63;5079842;27;45315;-73
2022/08/05 09:43:35;;;;;;;;;6.60;6.60;;;;;-145.45;100.00;57426.63;5061761;28;45186;-73
2022/08/05 09:46:01;;;;;;;;;6.50;6.00;;;;;-145.45;100.00;57426.63;5079956;28;45242;-73
2022/08/05 09:48:29;;;;;;;;;6.50;6.25;;;;;-145.45;100.00;57426.63;5080062;27;45608;-73
2022/08/05 09:51:00;;;;;;;;;8.25;6.25;;;;;-145.45;100.00;57426.63;5079704;28;45396;-73
2022/08/05 09:53:26;;;;;;;;;8.60;6.40;;;;;-145.45;100.00;57426.63;5079959;28;45179;-72
2022/08/05 09:55:55;;;;;;;;;6.60;5.80;;;;;-145.45;100.00;57426.63;5079945;28;45393;-72
2022/08/05 09:58:20;;;;;;;;;5.25;5.25;;;;;-145.45;100.00;57426.63;5061687;28;47122;-73
2022/08/05 10:00:59;;;;;;;;;6.25;6.25;;;;;-145.45;100.00;57426.63;5079446;28;46131;-72
2022/08/05 10:03:25;;;;;;;;;6.60;5.40;;;;;-145.45;100.00;57426.63;5078916;27;45450;-72
2022/08/05 10:06:06;;;;;;;;;7.25;7.00;;;;;-145.45;100.00;57426.63;5079979;27;45338;-74
2022/08/05 10:08:33;;;;;;;;;6.00;5.60;;;;;-145.45;100.00;57426.63;5079610;28;45387;-73
2022/08/05 10:10:58;;;;;;;;;9.60;7.20;;;;;-145.45;100.00;57426.63;5079807;28;45351;-74
2022/08/05 10:13:36;;;;;;;;;8.25;5.75;;;;;-145.45;100.00;57426.63;5079507;28;45270;-74
2022/08/05 10:16:06;;;;;;;;;5.00;4.80;;;;;-145.45;100.00;57426.63;5079100;28;45497;-74
2022/08/05 10:18:33;;;;;;;;;7.20;6.60;;;;;-145.45;100.00;57426.63;5079469;28;45270;-74
2022/08/05 10:21:04;;;;;;;;;7.20;7.20;;;;;-145.45;100.00;57426.63;5079575;28;46198;-74
2022/08/05 10:23:35;;;;;;;;;7.00;5.00;;;;;-145.45;100.00;57426.63;5080300;28;45403;-71
2022/08/05 10:26:04;;;;;;;;;7.00;5.80;;;;;-145.45;100.00;57426.63;5083262;27;45303;-74
2022/08/05 10:28:30;;;;;;;;;7.50;7.25;;;;;-145.45;100.00;57426.63;5090289;27;45442;-74
2022/08/05 10:30:56;;;;;;;;;6.25;5.50;;;;;-145.45;100.00;57426.63;5083956;27;45326;-74
2022/08/05 10:33:25;;;;;;;;;4.80;4.80;;;;;-145.45;100.00;57426.63;5085079;27;45474;-74
2022/08/05 10:35:51;;;;;;;;;7.20;6.80;;;;;-145.45;100.00;57426.63;5088771;27;45192;-73
2022/08/05 10:38:26;;;;;;;;;5.20;5.20;;;;;-145.45;100.00;57426.63;5082803;28;45470;-73
2022/08/05 10:41:12;;;;;;;;;5.80;5.80;;;;;-145.45;100.00;57426.63;5082638;27;45326;-74
2022/08/05 10:44:11;;;;;;;;;6.60;6.00;;;;;-145.45;100.00;57426.63;5083107;28;45130;-73
2022/08/05 10:46:48;;;;;;;;;5.40;5.40;;;;;-145.45;100.00;57426.63;5092863;27;45459;-72
2022/08/05 10:49:13;;;;;;;;;5.60;5.60;;;;;-145.45;100.00;57426.63;5103233;27;45253;-73
2022/08/05 10:51:45;;;;;;;;;7.00;7.00;;;;;-145.45;100.00;57426.63;5103319;27;45174;-72
2022/08/05 10:54:10;;;;;;;;;6.40;6.40;;;;;-145.45;100.00;57426.63;5102973;27;45394;-72
2022/08/05 10:56:47;;;;;;;;;6.25;5.00;;;;;-145.45;100.00;57426.63;5103321;27;45346;-73
2022/08/05 10:59:26;;;;;;;;;7.60;5.40;;;;;-145.45;100.00;57426.63;5103203;27;45315;-73
2022/08/05 11:02:12;;;;;;;;;8.40;6.00;;;;;-145.45;100.00;57426.63;5102924;27;45526;-72
2022/08/05 11:04:44;;;;;;;;;5.40;5.40;;;;;-145.45;100.00;57426.63;5102935;27;45236;-73
2022/08/05 11:07:14;;;;;;;;;6.00;5.00;;;;;-145.45;100.00;57426.63;5103076;27;45279;-73
2022/08/05 11:09:46;;;;;;;;;5.80;5.80;;;;;-145.45;100.00;57426.63;5103031;27;45591;-73
2022/08/05 11:12:35;;;;;;;;;8.80;7.60;;;;;-145.45;100.00;57426.63;5102653;27;46275;-74
2022/08/05 11:15:04;;;;;;;;;7.80;5.00;;;;;-145.45;100.00;57426.63;5084325;27;45763;-73
2022/08/05 11:17:31;;;;;;;;;7.40;5.20;;;;;-145.45;100.00;57426.63;5103084;27;45232;-74
2022/08/05 11:19:58;;;;;;;;;5.40;5.20;;;;;-145.45;100.00;57426.63;5084308;27;45522;-73